Time;durP1;ratioP1;P1;durP2;ratioP2;P2;SDS_P1;SDS_P2;PMS_P1;PMS_P2;Temp;Humidity;BMP_temperature;BMP_pressure;BME280_temperature;BME280_humidity;BME280_pressure;Samples;Min_cycle;Max_cycle;Signal;HPM_P1;HPM_P2
2021/08/11 00:00:26;;;;;;;7.03;4.20;;;15.80;85.10;;;;;;1977560;30;20067;-92
2021/08/11 00:01:26;;;;;;;5.75;4.35;;;15.80;85.20;;;;;;1995756;29;20041;-92
2021/08/11 00:02:27;;;;;;;6.32;3.83;;;15.80;85.30;;;;;;1994055;29;20065;-92
2021/08/11 00:03:27;;;;;;;5.35;3.83;;;15.80;85.30;;;;;;1987652;29;20043;-92
2021/08/11 00:04:28;;;;;;;5.85;3.88;;;15.80;85.40;;;;;;1995413;29;20247;-93
2021/08/11 00:05:29;;;;;;;5.32;3.78;;;15.80;85.40;;;;;;1996044;29;20429;-92
2021/08/11 00:06:30;;;;;;;5.40;3.90;;;15.80;85.40;;;;;;2010592;29;20064;-92
2021/08/11 00:07:30;;;;;;;5.18;3.58;;;15.80;85.40;;;;;;2003749;29;20054;-92
2021/08/11 00:08:31;;;;;;;5.20;3.60;;;15.70;85.40;;;;;;1986962;29;20054;-92
2021/08/11 00:09:32;;;;;;;5.47;3.63;;;15.80;85.50;;;;;;1995472;29;20035;-92
2021/08/11 00:10:32;;;;;;;6.18;4.03;;;15.80;85.60;;;;;;2011030;29;20050;-92
2021/08/11 00:11:34;;;;;;;6.30;3.90;;;15.70;85.50;;;;;;2003349;29;20167;-93
2021/08/11 00:12:35;;;;;;;5.43;3.67;;;15.70;85.60;;;;;;2010595;29;20520;-93
2021/08/11 00:13:36;;;;;;;5.55;4.07;;;15.70;85.50;;;;;;2018230;29;20108;-93
2021/08/11 00:14:37;;;;;;;7.13;4.20;;;15.80;85.60;;;;;;2017740;29;20056;-92
2021/08/11 00:15:38;;;;;;;6.25;4.00;;;15.80;85.60;;;;;;2026156;29;20135;-93
2021/08/11 00:16:39;;;;;;;5.78;4.32;;;15.80;85.60;;;;;;2010117;29;20045;-93
2021/08/11 00:17:40;;;;;;;5.88;4.20;;;15.80;85.60;;;;;;2015460;29;20049;-93
2021/08/11 00:18:40;;;;;;;5.60;4.05;;;15.80;85.60;;;;;;2010024;29;20037;-92
2021/08/11 00:19:41;;;;;;;6.43;4.55;;;15.70;85.50;;;;;;2011007;29;20056;-93
2021/08/11 00:20:42;;;;;;;7.03;4.28;;;15.80;85.60;;;;;;2013186;29;20055;-93
2021/08/11 00:21:43;;;;;;;5.57;4.25;;;15.80;85.60;;;;;;2018745;29;20094;-93
2021/08/11 00:22:44;;;;;;;5.75;4.20;;;15.70;85.50;;;;;;2026633;29;20044;-93
2021/08/11 00:23:45;;;;;;;6.72;4.68;;;15.80;85.60;;;;;;2018516;29;20049;-93
2021/08/11 00:24:45;;;;;;;6.82;4.15;;;15.80;85.60;;;;;;2010874;29;20073;-93
2021/08/11 00:25:46;;;;;;;6.80;4.45;;;15.80;85.60;;;;;;2017984;29;20189;-93
2021/08/11 00:26:46;;;;;;;7.72;4.40;;;15.80;85.60;;;;;;2010444;29;20136;-93
2021/08/11 00:27:47;;;;;;;6.05;4.00;;;15.80;85.70;;;;;;2013774;29;20553;-92
2021/08/11 00:28:48;;;;;;;6.03;4.20;;;15.70;85.60;;;;;;2010676;29;20037;-92
2021/08/11 00:29:49;;;;;;;7.68;4.82;;;15.80;85.80;;;;;;2018598;29;20182;-92
2021/08/11 00:30:51;;;;;;;5.25;4.03;;;15.70;85.70;;;;;;2017825;29;20138;-92
2021/08/11 00:31:52;;;;;;;6.00;4.25;;;15.70;85.80;;;;;;2019052;29;20051;-92
2021/08/11 00:32:53;;;;;;;6.07;4.22;;;15.70;85.80;;;;;;2027934;29;20044;-92
2021/08/11 00:33:53;;;;;;;7.38;4.50;;;15.70;85.80;;;;;;2062355;28;20400;-92
2021/08/11 00:34:54;;;;;;;6.43;4.13;;;15.70;85.80;;;;;;2072796;28;20081;-92
2021/08/11 00:35:55;;;;;;;6.20;4.43;;;15.70;85.80;;;;;;2060184;28;20019;-90
2021/08/11 00:36:55;;;;;;;6.80;4.60;;;15.70;85.90;;;;;;2062232;28;20039;-91
2021/08/11 00:37:56;;;;;;;5.88;4.35;;;15.70;85.90;;;;;;2076370;28;20019;-89
2021/08/11 00:38:58;;;;;;;6.95;4.40;;;15.70;86.00;;;;;;2067464;28;20015;-92
2021/08/11 00:39:59;;;;;;;6.40;4.60;;;15.70;86.00;;;;;;2060242;28;20028;-89
2021/08/11 00:40:59;;;;;;;5.18;3.75;;;15.60;86.00;;;;;;2056179;28;20055;-92
2021/08/11 00:42:01;;;;;;;6.63;4.15;;;15.60;86.00;;;;;;2060083;28;20015;-91
2021/08/11 00:43:09;;;;;;;5.95;4.25;;;15.60;86.10;;;;;;2067873;28;20031;-90
2021/08/11 00:44:10;;;;;;;6.45;4.32;;;15.60;86.20;;;;;;2076112;28;20045;-91
2021/08/11 00:45:14;;;;;;;5.93;4.30;;;15.60;86.30;;;;;;2069274;28;20018;-91
2021/08/11 00:46:14;;;;;;;6.00;4.22;;;15.60;86.30;;;;;;2057766;28;20055;-93
2021/08/11 00:47:16;;;;;;;6.55;4.32;;;15.50;86.20;;;;;;2060922;28;20011;-92
2021/08/11 00:48:19;;;;;;;5.45;4.20;;;15.50;86.30;;;;;;2067877;28;20034;-92
2021/08/11 00:49:20;;;;;;;6.32;4.00;;;15.50;86.30;;;;;;2060325;28;20031;-91
2021/08/11 00:50:21;;;;;;;6.82;4.18;;;15.50;86.30;;;;;;2060423;28;20028;-91
2021/08/11 00:51:22;;;;;;;7.65;4.60;;;15.50;86.30;;;;;;2066970;28;20011;-92
2021/08/11 00:52:22;;;;;;;7.65;4.40;;;15.50;86.40;;;;;;2043327;29;20031;-92
2021/08/11 00:53:27;;;;;;;6.57;4.60;;;15.50;86.40;;;;;;2043412;29;20036;-92
2021/08/11 00:54:29;;;;;;;6.05;4.32;;;15.50;86.50;;;;;;2051766;28;20070;-93
2021/08/11 00:55:33;;;;;;;6.80;4.70;;;15.50;86.60;;;;;;2049423;28;20548;-92
2021/08/11 00:56:37;;;;;;;6.85;4.85;;;15.40;86.60;;;;;;2043688;28;20084;-93
2021/08/11 00:57:39;;;;;;;6.80;4.82;;;15.40;86.60;;;;;;2059677;28;20150;-92
2021/08/11 00:58:40;;;;;;;7.38;4.90;;;15.40;86.70;;;;;;2058952;28;20131;-93
2021/08/11 00:59:41;;;;;;;6.97;4.95;;;15.40;86.70;;;;;;2035852;29;20036;-93
2021/08/11 01:00:44;;;;;;;6.63;5.03;;;15.40;86.80;;;;;;2046773;28;20079;-93
2021/08/11 01:01:50;;;;;;;5.82;4.70;;;15.40;86.80;;;;;;2058637;28;20492;-92
2021/08/11 01:02:51;;;;;;;6.93;5.03;;;15.40;86.80;;;;;;2066871;28;20057;-92
2021/08/11 01:03:55;;;;;;;6.47;4.85;;;15.40;86.80;;;;;;2066523;28;20039;-92
2021/08/11 01:04:59;;;;;;;6.30;4.68;;;15.40;86.90;;;;;;2063696;28;20081;-92
2021/08/11 01:06:02;;;;;;;6.75;4.72;;;15.40;86.80;;;;;;2058066;28;20035;-92
2021/08/11 01:07:03;;;;;;;6.25;4.80;;;15.40;86.80;;;;;;2061770;28;20027;-92
2021/08/11 01:08:05;;;;;;;7.30;4.57;;;15.40;86.80;;;;;;2052887;28;20528;-92
2021/08/11 01:09:06;;;;;;;6.57;4.93;;;15.40;86.80;;;;;;2041788;29;20050;-93
2021/08/11 01:10:08;;;;;;;7.07;5.28;;;15.40;86.80;;;;;;2045189;28;20040;-92
2021/08/11 01:11:09;;;;;;;8.40;4.95;;;15.30;86.80;;;;;;2052411;28;20553;-92
2021/08/11 01:12:10;;;;;;;7.53;4.80;;;15.40;86.80;;;;;;2049922;28;20036;-92
2021/08/11 01:13:13;;;;;;;6.80;5.22;;;15.40;86.90;;;;;;2052806;28;20481;-92
2021/08/11 01:14:14;;;;;;;7.28;5.40;;;15.30;86.90;;;;;;2053941;28;20042;-92
2021/08/11 01:15:15;;;;;;;7.00;5.38;;;15.30;86.90;;;;;;2062512;28;20038;-92
2021/08/11 01:16:16;;;;;;;9.52;5.60;;;15.30;86.90;;;;;;2070105;28;20026;-92
2021/08/11 01:17:18;;;;;;;6.90;5.30;;;15.40;87.00;;;;;;2060704;28;20413;-92
2021/08/11 01:18:19;;;;;;;7.88;5.57;;;15.30;86.90;;;;;;2061025;28;20087;-92
2021/08/11 01:19:20;;;;;;;7.57;5.78;;;15.30;86.90;;;;;;2059444;28;20424;-92
2021/08/11 01:20:21;;;;;;;7.85;5.03;;;15.30;87.00;;;;;;2059814;28;20067;-92
2021/08/11 01:21:29;;;;;;;6.70;5.18;;;15.30;87.00;;;;;;2060123;28;20039;-92
2021/08/11 01:22:49;;;;;;;6.72;5.05;;;15.30;87.10;;;;;;2071256;28;20026;-91
2021/08/11 01:23:55;;;;;;;6.88;5.00;;;15.30;87.10;;;;;;2075695;28;20053;-92
2021/08/11 01:25:12;;;;;;;8.43;5.45;;;15.30;87.20;;;;;;2061726;28;20512;-91
2021/08/11 01:26:57;;;;;;;7.55;5.55;;;15.30;87.20;;;;;;2065192;28;20085;-92
2021/08/11 01:28:06;;;;;;;7.68;5.32;;;15.20;87.10;;;;;;2050635;29;20043;-92
2021/08/11 01:29:13;;;;;;;7.30;4.85;;;15.20;87.10;;;;;;2050714;28;20035;-92
2021/08/11 01:30:44;;;;;;;7.50;5.15;;;15.20;87.20;;;;;;2060539;28;20117;-91
2021/08/11 01:31:57;;;;;;;7.80;5.10;;;15.20;87.20;;;;;;2071831;28;20125;-92
2021/08/11 01:33:38;;;;;;;7.22;5.00;;;15.20;87.20;;;;;;2059490;28;20066;-91
2021/08/11 01:34:45;;;;;;;6.30;4.65;;;15.20;87.20;;;;;;2066502;28;20036;-91
2021/08/11 01:36:21;;;;;;;5.97;4.60;;;15.20;87.20;;;;;;2065562;28;20102;-92
2021/08/11 01:37:30;;;;;;;7.47;4.72;;;15.20;87.20;;;;;;2041511;29;20075;-91
2021/08/11 01:38:34;;;;;;;6.68;4.50;;;15.20;87.30;;;;;;2050466;28;20044;-92
2021/08/11 01:39:48;;;;;;;7.95;4.82;;;15.20;87.40;;;;;;2060857;28;20030;-91
2021/08/11 01:40:56;;;;;;;7.90;5.38;;;15.20;87.40;;;;;;2068303;28;20050;-93
2021/08/11 01:42:05;;;;;;;6.75;4.88;;;15.10;87.40;;;;;;2065678;28;20094;-92
2021/08/11 01:43:07;;;;;;;7.55;5.32;;;15.10;87.40;;;;;;2060884;28;20027;-92
2021/08/11 01:44:08;;;;;;;7.05;5.38;;;15.10;87.40;;;;;;2067987;28;20065;-92
2021/08/11 01:45:12;;;;;;;6.85;5.80;;;15.10;87.40;;;;;;2059835;28;20039;-92
2021/08/11 01:46:15;;;;;;;8.13;5.53;;;15.10;88.10;;;;;;2057923;28;20061;-91
2021/08/11 01:47:21;;;;;;;8.05;5.97;;;15.20;87.50;;;;;;2058230;28;20031;-91
2021/08/11 01:48:29;;;;;;;6.55;5.57;;;15.20;87.50;;;;;;2054793;28;20039;-92
2021/08/11 01:49:33;;;;;;;7.47;5.57;;;15.20;87.60;;;;;;2062833;28;20031;-92
2021/08/11 01:50:38;;;;;;;8.75;5.93;;;15.20;87.50;;;;;;2065660;28;20039;-92
2021/08/11 01:51:43;;;;;;;7.50;6.00;;;15.10;87.50;;;;;;2058368;28;20023;-92
2021/08/11 01:52:46;;;;;;;7.95;5.80;;;15.20;87.70;;;;;;2058134;28;20089;-92
2021/08/11 01:53:47;;;;;;;7.47;5.82;;;15.20;87.70;;;;;;2057898;28;20070;-92
2021/08/11 01:54:49;;;;;;;8.10;6.30;;;15.10;87.70;;;;;;2050012;29;20103;-92
2021/08/11 01:55:52;;;;;;;6.50;5.35;;;15.10;87.80;;;;;;2042046;29;20040;-93
2021/08/11 01:56:56;;;;;;;7.38;6.40;;;15.10;87.80;;;;;;2042669;28;20043;-92
2021/08/11 01:57:57;;;;;;;7.40;5.72;;;15.20;87.80;;;;;;2057673;28;20034;-92
2021/08/11 01:58:59;;;;;;;7.47;6.20;;;15.10;87.80;;;;;;2057276;28;20042;-91
2021/08/11 02:00:01;;;;;;;7.90;6.28;;;15.20;87.80;;;;;;2057155;28;20061;-92
2021/08/11 02:01:05;;;;;;;7.82;6.18;;;15.10;87.80;;;;;;2049631;28;20038;-91
2021/08/11 02:02:07;;;;;;;7.88;6.07;;;15.10;87.80;;;;;;2060355;28;20026;-91
2021/08/11 02:03:09;;;;;;;8.35;6.60;;;15.10;87.80;;;;;;2065407;28;20100;-92
2021/08/11 02:04:13;;;;;;;8.52;6.68;;;15.10;87.90;;;;;;2065365;28;20042;-91
2021/08/11 02:05:15;;;;;;;8.32;6.32;;;15.10;87.90;;;;;;2058849;28;20083;-92
2021/08/11 02:06:16;;;;;;;8.43;6.20;;;15.10;87.90;;;;;;2057431;28;20129;-92
2021/08/11 02:07:17;;;;;;;8.73;5.82;;;15.10;87.90;;;;;;2040913;28;20375;-91
2021/08/11 02:08:20;;;;;;;8.20;6.65;;;15.10;88.00;;;;;;2057802;28;20035;-91
2021/08/11 02:09:21;;;;;;;8.85;6.70;;;15.10;88.00;;;;;;2057712;28;20031;-90
2021/08/11 02:10:31;;;;;;;7.57;6.38;;;15.10;88.00;;;;;;2073121;28;20132;-91
2021/08/11 02:12:01;;;;;;;7.60;6.18;;;15.10;88.20;;;;;;2057121;28;20420;-90
2021/08/11 02:13:04;;;;;;;8.32;6.32;;;15.00;88.10;;;;;;2061066;28;20042;-91
2021/08/11 02:14:09;;;;;;;7.65;6.03;;;15.00;88.10;;;;;;2072532;28;20092;-91
2021/08/11 02:15:15;;;;;;;7.82;6.00;;;15.00;88.10;;;;;;2065444;28;20038;-91
2021/08/11 02:16:21;;;;;;;8.80;6.68;;;15.00;88.10;;;;;;2059937;28;20170;-91
2021/08/11 02:17:22;;;;;;;8.85;6.97;;;15.00;88.80;;;;;;2058220;28;20131;-90
2021/08/11 02:18:22;;;;;;;9.38;7.45;;;15.00;88.30;;;;;;2058867;28;20535;-90
2021/08/11 02:19:23;;;;;;;7.80;6.38;;;14.90;88.30;;;;;;2066848;28;20039;-90
2021/08/11 02:20:24;;;;;;;8.68;6.55;;;14.90;88.40;;;;;;2050766;29;20043;-90
2021/08/11 02:21:24;;;;;;;8.40;6.72;;;14.90;88.50;;;;;;2034971;29;20521;-90
2021/08/11 02:22:26;;;;;;;9.07;6.95;;;14.90;88.50;;;;;;2034201;29;20064;-90
2021/08/11 02:23:29;;;;;;;9.70;7.10;;;14.90;88.60;;;;;;2051697;28;20481;-90
2021/08/11 02:24:32;;;;;;;9.80;7.07;;;15.00;88.60;;;;;;2067339;28;20039;-91
2021/08/11 02:25:41;;;;;;;8.38;6.47;;;15.00;88.60;;;;;;2051456;28;20122;-91
2021/08/11 02:27:00;;;;;;;9.93;6.93;;;15.00;88.50;;;;;;2053148;28;20071;-91
2021/08/11 02:28:14;;;;;;;7.88;6.25;;;15.00;88.40;;;;;;2069958;28;20396;-91
2021/08/11 02:29:48;;;;;;;8.60;6.40;;;15.00;88.40;;;;;;2066094;28;20122;-91
2021/08/11 02:31:20;;;;;;;6.82;5.65;;;15.00;88.30;;;;;;2071849;28;20098;-90
2021/08/11 02:32:28;;;;;;;7.15;5.65;;;14.90;88.30;;;;;;2052408;28;20130;-91
2021/08/11 02:33:45;;;;;;;8.18;6.43;;;14.90;88.40;;;;;;2060901;28;20085;-91
2021/08/11 02:35:26;;;;;;;8.20;6.13;;;14.90;88.30;;;;;;2064596;28;20054;-91
2021/08/11 02:36:44;;;;;;;7.43;5.65;;;14.80;88.40;;;;;;2059627;28;20041;-91
2021/08/11 02:38:18;;;;;;;8.13;6.05;;;14.80;88.50;;;;;;2057138;28;20035;-91
2021/08/11 02:39:25;;;;;;;7.15;5.53;;;14.80;88.60;;;;;;2055071;28;20039;-90
2021/08/11 02:40:32;;;;;;;6.90;5.50;;;14.80;88.60;;;;;;2059731;28;20073;-91
2021/08/11 02:41:38;;;;;;;7.85;6.10;;;14.80;88.60;;;;;;2062399;28;20038;-91
2021/08/11 02:43:05;;;;;;;7.10;6.03;;;14.80;88.70;;;;;;2059089;28;20058;-91
2021/08/11 02:44:22;;;;;;;7.55;6.03;;;14.70;88.70;;;;;;2036721;28;20052;-91
2021/08/11 02:45:26;;;;;;;8.38;5.88;;;14.70;88.80;;;;;;2064253;28;20035;-91
2021/08/11 02:46:28;;;;;;;8.27;6.35;;;14.70;88.80;;;;;;2058892;28;20031;-91
2021/08/11 02:47:32;;;;;;;8.25;6.30;;;14.70;88.80;;;;;;2048140;28;20031;-91
2021/08/11 02:48:34;;;;;;;8.00;6.53;;;14.70;88.80;;;;;;2038444;29;20048;-91
2021/08/11 02:49:36;;;;;;;7.07;5.80;;;14.70;88.90;;;;;;2038016;28;20040;-90
2021/08/11 02:50:39;;;;;;;7.82;6.30;;;14.70;89.00;;;;;;2050170;28;20141;-91
2021/08/11 02:51:42;;;;;;;7.35;6.05;;;14.70;89.00;;;;;;2058603;28;20039;-91
2021/08/11 02:52:44;;;;;;;8.23;6.55;;;14.70;89.70;;;;;;2050549;28;20035;-91
2021/08/11 02:53:45;;;;;;;9.52;6.88;;;14.70;89.20;;;;;;2042675;28;20039;-91
2021/08/11 02:54:46;;;;;;;8.30;6.57;;;14.70;89.20;;;;;;2050158;28;20094;-90
2021/08/11 02:55:47;;;;;;;7.93;6.50;;;14.70;89.20;;;;;;2050582;29;20146;-91
2021/08/11 02:56:49;;;;;;;8.02;6.88;;;14.70;89.30;;;;;;2044415;28;20517;-91
2021/08/11 02:57:51;;;;;;;8.73;6.55;;;14.70;89.40;;;;;;2042927;28;20099;-91
2021/08/11 02:58:53;;;;;;;8.15;6.22;;;14.70;89.40;;;;;;2054726;28;20042;-91
2021/08/11 02:59:55;;;;;;;8.35;6.40;;;14.70;89.40;;;;;;2053408;28;20043;-91
2021/08/11 03:00:56;;;;;;;8.55;6.45;;;14.70;89.40;;;;;;2042527;29;20055;-91
2021/08/11 03:01:57;;;;;;;7.57;6.18;;;14.70;89.40;;;;;;2034697;29;20510;-91
2021/08/11 03:02:58;;;;;;;8.43;6.88;;;14.70;89.50;;;;;;2024298;29;20044;-91
2021/08/11 03:03:59;;;;;;;8.15;6.05;;;14.70;89.50;;;;;;2045356;28;20070;-91
2021/08/11 03:05:01;;;;;;;7.65;5.95;;;14.70;89.50;;;;;;2049382;29;20091;-91
2021/08/11 03:06:02;;;;;;;7.85;6.22;;;14.70;89.40;;;;;;2042969;28;20132;-91
2021/08/11 03:07:03;;;;;;;8.60;6.72;;;14.70;89.40;;;;;;2058278;28;20071;-90
2021/08/11 03:08:06;;;;;;;8.25;6.55;;;14.70;89.40;;;;;;2037719;28;20043;-91
2021/08/11 03:09:08;;;;;;;7.50;6.18;;;14.70;89.40;;;;;;2051501;28;20039;-91
2021/08/11 03:10:10;;;;;;;7.60;6.32;;;14.70;89.50;;;;;;2058903;28;20134;-91
2021/08/11 03:11:11;;;;;;;7.97;6.40;;;14.70;89.50;;;;;;2058412;28;20037;-91
2021/08/11 03:12:13;;;;;;;7.80;6.18;;;14.70;89.40;;;;;;2058716;28;20632;-91
2021/08/11 03:13:14;;;;;;;8.60;6.57;;;14.70;89.40;;;;;;2050293;28;20039;-91
2021/08/11 03:14:16;;;;;;;7.50;6.03;;;14.70;89.40;;;;;;2042858;28;20040;-91
2021/08/11 03:15:17;;;;;;;9.02;6.45;;;14.70;89.50;;;;;;2058624;28;20039;-91
2021/08/11 03:16:18;;;;;;;7.22;5.90;;;14.70;90.00;;;;;;2058427;28;20461;-91
2021/08/11 03:17:19;;;;;;;8.00;6.03;;;14.70;89.60;;;;;;2057916;28;20038;-91
2021/08/11 03:18:20;;;;;;;8.95;6.32;;;14.70;89.60;;;;;;2051266;28;20046;-91
2021/08/11 03:19:20;;;;;;;8.00;6.30;;;14.70;89.60;;;;;;2056477;28;20066;-90
2021/08/11 03:20:21;;;;;;;8.55;6.78;;;14.70;89.70;;;;;;2035117;28;20435;-92
2021/08/11 03:21:23;;;;;;;7.50;5.85;;;14.70;89.60;;;;;;2050270;28;20034;-92
2021/08/11 03:22:24;;;;;;;8.02;6.25;;;14.70;89.60;;;;;;2059999;28;20027;-91
2021/08/11 03:23:24;;;;;;;8.65;6.80;;;14.70;89.60;;;;;;2050400;28;20042;-91
2021/08/11 03:24:25;;;;;;;8.43;6.18;;;14.70;89.60;;;;;;2057449;28;20037;-91
2021/08/11 03:25:26;;;;;;;8.32;6.30;;;14.70;89.60;;;;;;2050636;28;20524;-91
2021/08/11 03:26:27;;;;;;;11.23;6.90;;;14.70;89.50;;;;;;2058051;28;20042;-91
2021/08/11 03:27:28;;;;;;;8.32;6.68;;;14.70;89.50;;;;;;2050699;28;20031;-91
2021/08/11 03:28:29;;;;;;;7.72;6.45;;;14.70;89.50;;;;;;2058172;28;20062;-91
2021/08/11 03:29:29;;;;;;;8.30;6.88;;;14.70;89.50;;;;;;2050243;28;20036;-92
2021/08/11 03:30:30;;;;;;;7.93;6.40;;;14.70;89.50;;;;;;2050528;28;20043;-92
2021/08/11 03:31:31;;;;;;;8.82;6.82;;;14.80;89.50;;;;;;2050285;28;20043;-91
2021/08/11 03:32:31;;;;;;;8.30;6.28;;;14.80;89.50;;;;;;2058179;28;20042;-91
2021/08/11 03:33:32;;;;;;;8.45;6.55;;;14.80;89.60;;;;;;2059865;28;20031;-91
2021/08/11 03:34:34;;;;;;;8.73;7.03;;;14.80;89.60;;;;;;2049830;29;20073;-92
2021/08/11 03:35:35;;;;;;;7.85;6.63;;;14.80;89.60;;;;;;2058723;28;20453;-91
2021/08/11 03:36:36;;;;;;;9.13;6.45;;;14.80;89.60;;;;;;2062732;28;20034;-91
2021/08/11 03:37:36;;;;;;;8.13;6.45;;;14.80;89.60;;;;;;2050225;29;20115;-91
2021/08/11 03:38:37;;;;;;;8.00;6.63;;;14.80;89.60;;;;;;2051528;28;20134;-92
2021/08/11 03:39:38;;;;;;;8.38;6.50;;;14.80;89.60;;;;;;2058136;28;20046;-91
2021/08/11 03:40:38;;;;;;;8.05;6.25;;;14.80;89.60;;;;;;2070624;28;20053;-92
2021/08/11 03:41:39;;;;;;;7.88;6.28;;;14.80;89.60;;;;;;2054262;28;20085;-92
2021/08/11 03:42:40;;;;;;;8.40;6.32;;;14.80;89.60;;;;;;2042646;29;20048;-89
2021/08/11 03:43:41;;;;;;;7.82;6.22;;;14.80;89.60;;;;;;2044638;28;20326;-89
2021/08/11 03:44:41;;;;;;;8.43;6.78;;;14.80;89.60;;;;;;2050100;28;20043;-91
2021/08/11 03:45:43;;;;;;;8.50;7.00;;;14.80;89.60;;;;;;2051768;28;20095;-91
2021/08/11 03:46:44;;;;;;;7.70;6.45;;;14.70;89.60;;;;;;2057310;28;20069;-92
2021/08/11 03:47:45;;;;;;;8.10;6.55;;;14.80;89.60;;;;;;2042420;29;20059;-91
2021/08/11 03:48:46;;;;;;;7.70;6.05;;;14.80;89.60;;;;;;2042424;28;20043;-91
2021/08/11 03:49:49;;;;;;;7.60;6.35;;;14.80;89.60;;;;;;2057478;28;20191;-91
2021/08/11 03:50:50;;;;;;;8.00;6.20;;;14.80;89.60;;;;;;2052892;28;20047;-91
2021/08/11 03:51:58;;;;;;;8.15;6.43;;;14.80;89.60;;;;;;2042779;29;20035;-91
2021/08/11 03:52:59;;;;;;;7.70;6.35;;;14.80;89.60;;;;;;2053641;28;20122;-91
2021/08/11 03:54:03;;;;;;;8.07;6.43;;;14.70;89.60;;;;;;2065333;28;20504;-92
2021/08/11 03:55:06;;;;;;;8.95;6.63;;;14.80;89.60;;;;;;2044954;29;20135;-91
2021/08/11 03:56:07;;;;;;;8.02;6.68;;;14.80;89.60;;;;;;2051031;28;20129;-91
2021/08/11 03:57:09;;;;;;;8.68;6.80;;;14.70;89.60;;;;;;2057880;28;20043;-91
2021/08/11 03:58:12;;;;;;;8.13;6.57;;;14.70;89.70;;;;;;2053324;28;20027;-91
2021/08/11 03:59:13;;;;;;;8.43;6.65;;;14.80;89.70;;;;;;2056111;28;20525;-91
2021/08/11 04:00:14;;;;;;;8.65;6.63;;;14.70;89.80;;;;;;2057002;28;20045;-91
2021/08/11 04:01:19;;;;;;;8.45;6.75;;;14.80;89.80;;;;;;2049934;28;20043;-91
2021/08/11 04:02:23;;;;;;;7.78;6.32;;;14.70;89.80;;;;;;2052379;28;20059;-90
2021/08/11 04:03:25;;;;;;;8.02;6.55;;;14.80;89.80;;;;;;2055125;28;20182;-91
2021/08/11 04:04:26;;;;;;;8.00;6.35;;;14.80;89.80;;;;;;2048276;28;20051;-91
2021/08/11 04:05:29;;;;;;;8.32;6.78;;;14.80;89.80;;;;;;2058865;28;20035;-91
2021/08/11 04:06:31;;;;;;;8.30;6.43;;;14.80;89.90;;;;;;2058134;28;20039;-91
2021/08/11 04:07:42;;;;;;;8.25;6.65;;;14.70;89.80;;;;;;2035310;29;20105;-91
2021/08/11 04:08:44;;;;;;;8.00;6.32;;;14.80;89.80;;;;;;2037993;28;20044;-91
2021/08/11 04:09:45;;;;;;;8.43;7.00;;;14.80;89.80;;;;;;2058661;28;20039;-91
2021/08/11 04:10:46;;;;;;;7.82;6.05;;;14.80;89.90;;;;;;2063366;28;20088;-91
2021/08/11 04:11:49;;;;;;;7.85;6.45;;;14.80;89.90;;;;;;2042163;29;20036;-91
2021/08/11 04:12:51;;;;;;;8.90;6.50;;;14.80;89.90;;;;;;2050425;28;20042;-91
2021/08/11 04:13:52;;;;;;;8.88;6.55;;;14.80;89.80;;;;;;2057865;28;20039;-91
2021/08/11 04:14:53;;;;;;;9.02;6.80;;;14.80;89.80;;;;;;2042488;28;20043;-91
2021/08/11 04:15:55;;;;;;;8.00;6.50;;;14.80;89.80;;;;;;2043932;28;20035;-91
2021/08/11 04:16:57;;;;;;;8.65;6.68;;;14.90;89.90;;;;;;2050655;28;20122;-91
2021/08/11 04:17:58;;;;;;;9.18;7.13;;;14.90;89.90;;;;;;2063613;28;20528;-91
2021/08/11 04:18:59;;;;;;;8.38;6.63;;;14.90;89.90;;;;;;2050213;28;20039;-91
2021/08/11 04:20:03;;;;;;;8.32;6.50;;;14.90;89.90;;;;;;2050175;28;20132;-91
2021/08/11 04:21:04;;;;;;;8.65;6.90;;;14.90;89.80;;;;;;2058497;28;20058;-91
2021/08/11 04:22:05;;;;;;;7.97;6.60;;;14.90;89.80;;;;;;2042164;28;20076;-91
2021/08/11 04:23:07;;;;;;;8.98;6.70;;;15.00;89.80;;;;;;2049634;28;20525;-91
2021/08/11 04:24:08;;;;;;;8.18;6.28;;;15.00;89.80;;;;;;2058245;28;20114;-91
2021/08/11 04:25:10;;;;;;;8.18;6.70;;;15.00;89.80;;;;;;2050450;28;20512;-92
2021/08/11 04:26:20;;;;;;;7.60;6.40;;;15.00;89.80;;;;;;2042476;29;20040;-91
2021/08/11 04:27:22;;;;;;;8.02;6.22;;;15.00;89.80;;;;;;2043332;28;20038;-91
2021/08/11 04:28:32;;;;;;;9.52;6.80;;;15.10;89.80;;;;;;2046012;28;20084;-90
2021/08/11 04:29:38;;;;;;;9.32;7.20;;;15.00;89.70;;;;;;2057425;28;20062;-91
2021/08/11 04:30:41;;;;;;;9.18;6.82;;;15.10;89.80;;;;;;2066039;28;20038;-90
2021/08/11 04:31:42;;;;;;;10.32;6.97;;;15.10;89.80;;;;;;2060869;28;20031;-91
2021/08/11 04:32:42;;;;;;;10.68;7.20;;;15.10;89.80;;;;;;2043932;29;20134;-92
2021/08/11 04:33:46;;;;;;;10.75;7.93;;;15.10;89.90;;;;;;2043538;28;20098;-90
2021/08/11 04:34:48;;;;;;;10.00;7.20;;;15.10;89.90;;;;;;2042957;28;20402;-89
2021/08/11 04:35:50;;;;;;;14.50;8.32;;;15.10;89.90;;;;;;2042007;28;20119;-89
2021/08/11 04:36:56;;;;;;;10.63;7.72;;;15.10;90.00;;;;;;2039141;29;20043;-91
2021/08/11 04:37:57;;;;;;;16.33;8.38;;;15.10;90.00;;;;;;2039746;28;20195;-91
2021/08/11 04:38:59;;;;;;;14.02;8.38;;;15.20;90.00;;;;;;2049271;28;20036;-91
2021/08/11 04:40:24;;;;;;;14.13;8.00;;;15.20;90.00;;;;;;2041691;29;20502;-89
2021/08/11 04:41:55;;;;;;;11.48;6.85;;;15.20;90.00;;;;;;2029934;29;20054;-90
2021/08/11 04:42:57;;;;;;;10.43;6.57;;;15.20;90.00;;;;;;2051083;28;20047;-90
2021/08/11 04:44:03;;;;;;;11.02;6.53;;;15.20;90.00;;;;;;2047173;29;20523;-89
2021/08/11 04:45:18;;;;;;;12.55;6.25;;;15.20;90.00;;;;;;2035870;29;20032;-89
2021/08/11 04:46:26;;;;;;;12.35;6.47;;;15.20;90.00;;;;;;2037738;29;20048;-90
2021/08/11 04:47:34;;;;;;;11.95;6.30;;;15.20;90.00;;;;;;2045244;28;20122;-89
2021/08/11 04:48:35;;;;;;;8.50;6.40;;;15.20;90.10;;;;;;2048886;29;20039;-91
2021/08/11 04:49:36;;;;;;;12.63;6.20;;;15.20;90.10;;;;;;2034064;29;20060;-90
2021/08/11 04:50:38;;;;;;;11.50;6.28;;;15.20;90.10;;;;;;2034145;29;20036;-89
2021/08/11 04:51:40;;;;;;;15.38;6.13;;;15.20;90.10;;;;;;2026743;29;20032;-90
2021/08/11 04:52:41;;;;;;;18.17;6.05;;;15.20;90.20;;;;;;2026357;29;20071;-90
2021/08/11 04:53:46;;;;;;;12.27;5.80;;;15.20;90.10;;;;;;2026162;29;20082;-90
2021/08/11 04:55:12;;;;;;;9.63;6.15;;;15.30;90.30;;;;;;2034083;29;20047;-91
2021/08/11 04:56:53;;;;;;;8.57;5.30;;;15.30;90.10;;;;;;2036703;29;20058;-88
2021/08/11 04:57:56;;;;;;;12.35;5.85;;;15.30;90.20;;;;;;2025461;29;20037;-88
2021/08/11 04:58:59;;;;;;;12.20;5.40;;;15.30;90.10;;;;;;2017067;29;20143;-89
2021/08/11 05:00:02;;;;;;;10.88;5.82;;;15.30;90.10;;;;;;2025684;29;20044;-89
2021/08/11 05:01:05;;;;;;;8.68;5.30;;;15.30;90.10;;;;;;2028543;29;20032;-90
2021/08/11 05:02:21;;;;;;;9.07;5.70;;;15.30;90.10;;;;;;2018299;29;20044;-90
2021/08/11 05:03:26;;;;;;;9.30;5.78;;;15.30;90.20;;;;;;2028267;29;20041;-89
2021/08/11 05:04:37;;;;;;;13.38;5.47;;;15.30;90.10;;;;;;2025676;29;20135;-90
2021/08/11 05:05:50;;;;;;;9.00;5.72;;;15.40;90.20;;;;;;2026020;29;20076;-90
2021/08/11 05:07:19;;;;;;;6.75;5.20;;;15.40;90.20;;;;;;2028357;29;20052;-90
2021/08/11 05:08:22;;;;;;;9.40;5.60;;;15.40;90.10;;;;;;2025911;29;20132;-90
2021/08/11 05:09:24;;;;;;;9.55;5.82;;;15.40;90.10;;;;;;2017322;29;20045;-90
2021/08/11 05:10:36;;;;;;;10.82;5.35;;;15.40;90.10;;;;;;2019046;29;20041;-90
2021/08/11 05:11:37;;;;;;;9.15;5.32;;;15.40;90.10;;;;;;2020072;29;20050;-90
2021/08/11 05:13:01;;;;;;;10.00;5.10;;;15.40;90.10;;;;;;2032572;29;20107;-90
2021/08/11 05:14:09;;;;;;;12.65;5.03;;;15.40;90.10;;;;;;2027590;29;20055;-90
2021/08/11 05:15:14;;;;;;;8.10;5.05;;;15.40;90.10;;;;;;2022771;29;20017;-90
2021/08/11 05:16:15;;;;;;;6.32;4.97;;;15.40;90.10;;;;;;2036360;29;20024;-90
2021/08/11 05:17:21;;;;;;;6.00;4.93;;;15.40;90.10;;;;;;2035946;29;20041;-89
2021/08/11 05:18:22;;;;;;;9.80;5.15;;;15.50;90.20;;;;;;2028449;29;20024;-90
2021/08/11 05:19:22;;;;;;;9.73;4.70;;;15.50;90.20;;;;;;2028001;29;20458;-90
2021/08/11 05:20:23;;;;;;;7.40;5.03;;;15.40;90.20;;;;;;2020273;29;20058;-89
2021/08/11 05:21:28;;;;;;;5.80;4.70;;;15.50;90.20;;;;;;2020602;29;20096;-90
2021/08/11 05:22:29;;;;;;;6.63;5.13;;;15.50;90.20;;;;;;2027392;29;20021;-90
2021/08/11 05:23:31;;;;;;;6.10;4.78;;;15.50;90.20;;;;;;2027120;29;20092;-89
2021/08/11 05:24:31;;;;;;;8.57;5.30;;;15.50;90.20;;;;;;2020309;29;20026;-90
2021/08/11 05:25:33;;;;;;;6.47;4.80;;;15.60;90.20;;;;;;2020300;29;20097;-90
2021/08/11 05:26:35;;;;;;;7.13;4.45;;;15.60;90.20;;;;;;2035680;29;20049;-89
2021/08/11 05:27:36;;;;;;;6.60;5.00;;;15.60;90.20;;;;;;2029298;29;20081;-89
2021/08/11 05:28:37;;;;;;;8.75;4.45;;;15.60;90.10;;;;;;2021084;29;20022;-89
2021/08/11 05:29:42;;;;;;;7.03;4.43;;;15.60;90.10;;;;;;2028166;29;20024;-90
2021/08/11 05:30:43;;;;;;;7.05;4.18;;;15.60;90.10;;;;;;2036360;29;20063;-88
2021/08/11 05:31:51;;;;;;;5.22;4.38;;;15.60;90.10;;;;;;2045166;28;20198;-90
2021/08/11 05:32:52;;;;;;;5.30;4.38;;;15.60;90.10;;;;;;2041033;29;20053;-90
2021/08/11 05:33:53;;;;;;;5.80;4.68;;;15.60;90.10;;;;;;2042411;28;20111;-90
2021/08/11 05:34:56;;;;;;;6.40;4.32;;;15.70;90.10;;;;;;2038271;29;20040;-90